Etusivu
METAR-TAF:

METAR-TAF

Lentoasemat :

Joensuun lentoasema

Joensuu, Suomi

Leveyspiiri: 62-40N, Pituuspiiri: 029-38E, korkeus merenpinnasta: 119 m

Tämänhetkinen sää

Tämä raportti tehtiin 37 minuuttia sitten, kello 14.50 UTC
Tuuli 14 kn lännestä, vaihdellen lännen/lounaan ja luoteen välillä
Lämpötila 18°C
Kosteus 37%
Ilmanpaine 1001 hPa
Näkyvyys 10 km tai enemmän
ei pilviä alle 1500 m:ssä eikä cumulonimbus-pilviä

METAR: EFJO 201450Z 28014KT 240V310 CAVOK 18/03 Q1001

Aika: 18:27 (15:27 UTC)

Sääennuste

Tämä raportti tehtiin 3 tuntia ja 53 minuuttia sitten, kello 11.34 UTC
Ennuste voimassa 20. päivästä klo 12 UTC - 20. päivään klo 16 UTC
Tuuli 15 kn lännestä
Näkyvyys 10 km tai enemmän
ei pilviä alle 1500 m:ssä eikä cumulonimbus-pilviä
Ajoittain
20. päivästä klo 12 UTC - 20. päivään klo 16 UTC
Tuuli 17 kn lännestä puuskistuen 30 kn:hen

TAF: EFJO 201134Z 2012/2016 28015KT CAVOK TEMPO 2012/2016 28017G30KT

Säähavainnot ja -ennusteet yli 4000 lentoasemalta (METAR- ja TAF-raportit).

Käytössä olevat sääasemat on merkitty karttaan keltaisilla ja punaisilla pisteillä.

Aseta hiiri pisteen päälle nähdäksesi sääaseman nimen.

Klikkaa sitten nähdäksesi säähavainnot ja -ennusteet.

Kartan vaihtaminen: klikkaa mustalla rastilla varustettuja vihreitä pisteitä, niin voit zoomata sisään; viivalla varustettua vihreää pistettä, niin voit zoomata ulos tai vihreitä nuolia, niin pääset viereisille kartoille.


METAR-TAF: